Creek Data

    Home     View Charts     View Raw Data     Messages

ID Distance Battery Voltage Battery Current Internal Temp Internal Humidity External Temp Solar Input rssi snr Time Stamp Record
36504 0.0 4.06 0 68 41 61 5.1 -81 8 03/31/2025 04:30 PM 18359
36503 0.0 4.14 0 67 42 60 5.1 -79 8 03/31/2025 04:15 PM 18358
36502 0.0 4.01 0 66 44 60 5.1 -83 8 03/31/2025 04:00 PM 18357
36501 0.0 4.01 0 73 39 61 5.1 -80 8 03/31/2025 03:45 PM 18356
36500 0.0 4.09 0 73 39 65 5.1 -81 8 03/31/2025 03:30 PM 18355
36499 0.0 4.01 0 70 40 65 5.1 -80 8 03/31/2025 03:15 PM 18354
36498 0.0 4.07 0 70 41 64 5.1 -81 8 03/31/2025 03:00 PM 18353
36497 15.1 4.04 0 71 40 66 5.1 -88 7 03/31/2025 02:45 PM 18352
36496 0.0 4.04 0 71 40 63 5.1 -80 8 03/31/2025 02:30 PM 18351
36495 0.0 4.01 0 70 40 64 5.1 -83 9 03/31/2025 02:15 PM 18350
36494 0.0 4.10 0 69 40 65 5.1 -85 8 03/31/2025 02:01 PM 18349
36493 0.0 4.01 0 71 38 64 5.1 -82 9 03/31/2025 01:45 PM 18348
36492 0.0 4.01 0 70 38 65 5.1 -83 8 03/31/2025 01:30 PM 18347
36491 0.0 4.01 0 67 39 65 5.1 -86 8 03/31/2025 01:15 PM 18346
36490 0.0 4.01 0 64 40 60 5.1 -84 8 03/31/2025 01:00 PM 18345
36489 0.0 4.04 0 65 40 59 5.1 -79 7 03/31/2025 12:45 PM 18344
36488 0.0 4.01 0 66 39 61 5.1 -80 8 03/31/2025 12:30 PM 18343
36487 0.0 4.01 0 65 39 61 5.1 -84 8 03/31/2025 12:15 PM 18342
36486 0.0 4.01 0 65 39 64 5.1 -82 8 03/31/2025 12:00 PM 18341
36485 15.1 4.01 0 62 39 63 5.1 -82 8 03/31/2025 11:45 AM 18340
36484 15.1 4.01 0 58 40 60 5.1 -84 9 03/31/2025 11:30 AM 18339
36483 15.0 4.11 0 55 41 56 5.1 -84 8 03/31/2025 11:15 AM 18338
36482 15.0 4.01 0 54 41 55 5.1 -82 7 03/31/2025 11:00 AM 18337
36481 15.0 4.01 0 54 41 55 5.1 -84 8 03/31/2025 10:45 AM 18336
36480 15.1 4.01 0 54 41 54 5.1 -84 7 03/31/2025 10:30 AM 18335